sensor_id;sensor_type;location;lat;lon;timestamp;pressure;altitude;pressure_sealevel;temperature;humidity
34328;BME280;20588;48.840;10.064;2022-11-20T00:01:25;95911.00;;;6.06;100.00
34328;BME280;20588;48.840;10.064;2022-11-20T00:03:53;95913.75;;;6.11;100.00
34328;BME280;20588;48.840;10.064;2022-11-20T00:06:21;95918.44;;;6.08;100.00
34328;BME280;20588;48.840;10.064;2022-11-20T00:08:48;95911.00;;;6.06;100.00
34328;BME280;20588;48.840;10.064;2022-11-20T00:11:16;95920.44;;;6.06;100.00
34328;BME280;20588;48.840;10.064;2022-11-20T00:13:44;95914.13;;;6.08;100.00
34328;BME280;20588;48.840;10.064;2022-11-20T00:16:12;95918.44;;;6.08;100.00
34328;BME280;20588;48.840;10.064;2022-11-20T00:18:39;95917.28;;;6.10;100.00
34328;BME280;20588;48.840;10.064;2022-11-20T00:21:09;95920.44;;;6.06;100.00
34328;BME280;20588;48.840;10.064;2022-11-20T00:23:36;95924.34;;;6.02;100.00
34328;BME280;20588;48.840;10.064;2022-11-20T00:26:06;95925.13;;;5.96;100.00
34328;BME280;20588;48.840;10.064;2022-11-20T00:28:33;95926.31;;;5.93;100.00
34328;BME280;20588;48.840;10.064;2022-11-20T00:31:07;95924.34;;;5.95;100.00
34328;BME280;20588;48.840;10.064;2022-11-20T00:33:34;95923.75;;;5.87;100.00
34328;BME280;20588;48.840;10.064;2022-11-20T00:36:06;95923.34;;;5.83;100.00
34328;BME280;20588;48.840;10.064;2022-11-20T00:38:33;95921.16;;;5.80;100.00
34328;BME280;20588;48.840;10.064;2022-11-20T00:41:05;95924.47;;;5.74;100.00
34328;BME280;20588;48.840;10.064;2022-11-20T00:43:31;95921.16;;;5.74;100.00
34328;BME280;20588;48.840;10.064;2022-11-20T00:48:34;95916.03;;;5.67;100.00
34328;BME280;20588;48.840;10.064;2022-11-20T00:51:00;95923.50;;;5.69;100.00
34328;BME280;20588;48.840;10.064;2022-11-20T00:53:27;95929.59;;;5.68;100.00
34328;BME280;20588;48.840;10.064;2022-11-20T00:56:09;95933.72;;;5.69;100.00
34328;BME280;20588;48.840;10.064;2022-11-20T00:58:37;95932.16;;;5.68;100.00
34328;BME280;20588;48.840;10.064;2022-11-20T01:03:32;95931.94;;;5.76;100.00
34328;BME280;20588;48.840;10.064;2022-11-20T01:06:03;95927.81;;;5.75;100.00
34328;BME280;20588;48.840;10.064;2022-11-20T01:08:31;95930.56;;;5.73;100.00
34328;BME280;20588;48.840;10.064;2022-11-20T01:11:10;95928.03;;;5.73;100.00
34328;BME280;20588;48.840;10.064;2022-11-20T01:13:37;95923.53;;;5.75;100.00
34328;BME280;20588;48.840;10.064;2022-11-20T01:16:31;95935.69;;;5.73;100.00
34328;BME280;20588;48.840;10.064;2022-11-20T01:18:59;95935.69;;;5.73;100.00
34328;BME280;20588;48.840;10.064;2022-11-20T01:21:32;95941.78;;;5.72;100.00
34328;BME280;20588;48.840;10.064;2022-11-20T01:23:59;95939.41;;;5.71;100.00
34328;BME280;20588;48.840;10.064;2022-11-20T01:26:28;95941.97;;;5.71;100.00
34328;BME280;20588;48.840;10.064;2022-11-20T01:28:55;95948.63;;;5.72;100.00
34328;BME280;20588;48.840;10.064;2022-11-20T01:31:25;95944.31;;;5.66;100.00
34328;BME280;20588;48.840;10.064;2022-11-20T01:33:54;95948.81;;;5.70;100.00
34328;BME280;20588;48.840;10.064;2022-11-20T01:36:22;95948.66;;;5.78;100.00
34328;BME280;20588;48.840;10.064;2022-11-20T01:38:55;95953.94;;;5.70;100.00
34328;BME280;20588;48.840;10.064;2022-11-20T01:41:22;95955.69;;;5.70;100.00
34328;BME280;20588;48.840;10.064;2022-11-20T01:44:08;95947.66;;;5.66;100.00
34328;BME280;20588;48.840;10.064;2022-11-20T01:46:38;95949.78;;;5.63;100.00
34328;BME280;20588;48.840;10.064;2022-11-20T01:49:16;95953.72;;;5.65;100.00
34328;BME280;20588;48.840;10.064;2022-11-20T01:51:50;95948.03;;;5.63;100.00
34328;BME280;20588;48.840;10.064;2022-11-20T01:54:24;95948.03;;;5.63;100.00
34328;BME280;20588;48.840;10.064;2022-11-20T01:56:53;95945.28;;;5.65;100.00
34328;BME280;20588;48.840;10.064;2022-11-20T01:59:23;95944.88;;;5.61;100.00
34328;BME280;20588;48.840;10.064;2022-11-20T02:01:51;95946.84;;;5.59;100.00
34328;BME280;20588;48.840;10.064;2022-11-20T02:04:18;95947.81;;;5.58;100.00
34328;BME280;20588;48.840;10.064;2022-11-20T02:06:50;95945.06;;;5.59;100.00
34328;BME280;20588;48.840;10.064;2022-11-20T02:09:18;95951.16;;;5.58;100.00
34328;BME280;20588;48.840;10.064;2022-11-20T02:11:44;95942.91;;;5.56;100.00
34328;BME280;20588;48.840;10.064;2022-11-20T02:14:10;95941.16;;;5.57;100.00
34328;BME280;20588;48.840;10.064;2022-11-20T02:16:41;95936.25;;;5.55;100.00
34328;BME280;20588;48.840;10.064;2022-11-20T02:19:17;95942.13;;;5.56;100.00
34328;BME280;20588;48.840;10.064;2022-11-20T02:22:08;95940.34;;;5.56;100.00
34328;BME280;20588;48.840;10.064;2022-11-20T02:24:36;95943.28;;;5.53;100.00
34328;BME280;20588;48.840;10.064;2022-11-20T02:27:14;95938.38;;;5.52;100.00
34328;BME280;20588;48.840;10.064;2022-11-20T02:29:57;95951.75;;;5.54;100.00
34328;BME280;20588;48.840;10.064;2022-11-20T02:34:55;95944.66;;;5.49;100.00
34328;BME280;20588;48.840;10.064;2022-11-20T02:37:23;95953.09;;;5.50;100.00
34328;BME280;20588;48.840;10.064;2022-11-20T02:39:53;95949.78;;;5.49;100.00
34328;BME280;20588;48.840;10.064;2022-11-20T02:42:19;95944.66;;;5.49;100.00
34328;BME280;20588;48.840;10.064;2022-11-20T02:44:45;95943.88;;;5.49;100.00
34328;BME280;20588;48.840;10.064;2022-11-20T02:47:11;95944.28;;;5.52;100.00
34328;BME280;20588;48.840;10.064;2022-11-20T02:49:37;95940.34;;;5.56;100.00
34328;BME280;20588;48.840;10.064;2022-11-20T02:52:04;95939.38;;;5.57;100.00
34328;BME280;20588;48.840;10.064;2022-11-20T02:54:30;95945.84;;;5.53;100.00
34328;BME280;20588;48.840;10.064;2022-11-20T02:56:56;95932.50;;;5.51;100.00
34328;BME280;20588;48.840;10.064;2022-11-20T02:59:22;95943.50;;;5.52;100.00
34328;BME280;20588;48.840;10.064;2022-11-20T03:01:48;95938.56;;;5.50;100.00
34328;BME280;20588;48.840;10.064;2022-11-20T03:04:14;95942.13;;;5.49;100.00
34328;BME280;20588;48.840;10.064;2022-11-20T03:06:40;95932.69;;;5.50;100.00
34328;BME280;20588;48.840;10.064;2022-11-20T03:09:06;95936.22;;;5.49;100.00
34328;BME280;20588;48.840;10.064;2022-11-20T03:11:33;95944.09;;;5.54;100.00
34328;BME280;20588;48.840;10.064;2022-11-20T03:14:02;95936.63;;;5.52;100.00
34328;BME280;20588;48.840;10.064;2022-11-20T03:16:30;95933.88;;;5.54;100.00
34328;BME280;20588;48.840;10.064;2022-11-20T03:18:56;95929.34;;;5.56;100.00
34328;BME280;20588;48.840;10.064;2022-11-20T03:21:23;95937.41;;;5.59;100.00
34328;BME280;20588;48.840;10.064;2022-11-20T03:23:49;95924.84;;;5.58;100.00
34328;BME280;20588;48.840;10.064;2022-11-20T03:26:21;95932.72;;;5.63;100.00
34328;BME280;20588;48.840;10.064;2022-11-20T03:28:50;95938.78;;;5.62;100.00
34328;BME280;20588;48.840;10.064;2022-11-20T03:31:18;95937.81;;;5.63;100.00
34328;BME280;20588;48.840;10.064;2022-11-20T03:33:45;95938.03;;;5.62;100.00
34328;BME280;20588;48.840;10.064;2022-11-20T03:36:13;95939.19;;;5.66;100.00
34328;BME280;20588;48.840;10.064;2022-11-20T03:38:39;95940.56;;;5.62;100.00
34328;BME280;20588;48.840;10.064;2022-11-20T03:41:11;95938.22;;;5.60;100.00
34328;BME280;20588;48.840;10.064;2022-11-20T03:43:38;95932.53;;;5.65;100.00
34328;BME280;20588;48.840;10.064;2022-11-20T03:46:05;95939.59;;;5.63;100.00
34328;BME280;20588;48.840;10.064;2022-11-20T03:48:31;95941.91;;;5.57;100.00
34328;BME280;20588;48.840;10.064;2022-11-20T03:53:38;95938.00;;;5.55;100.00
34328;BME280;20588;48.840;10.064;2022-11-20T03:56:05;95939.75;;;5.54;100.00
34328;BME280;20588;48.840;10.064;2022-11-20T03:58:32;95949.00;;;5.55;100.00
34328;BME280;20588;48.840;10.064;2022-11-20T04:01:03;95941.34;;;5.55;100.00
34328;BME280;20588;48.840;10.064;2022-11-20T04:03:29;95937.00;;;5.56;100.00
34328;BME280;20588;48.840;10.064;2022-11-20T04:06:00;95936.44;;;5.54;100.00
34328;BME280;20588;48.840;10.064;2022-11-20T04:08:27;95932.72;;;5.56;100.00
34328;BME280;20588;48.840;10.064;2022-11-20T04:10:53;95930.16;;;5.56;100.00
34328;BME280;20588;48.840;10.064;2022-11-20T04:13:19;95927.19;;;5.53;100.00
34328;BME280;20588;48.840;10.064;2022-11-20T04:15:45;95923.69;;;5.54;100.00
34328;BME280;20588;48.840;10.064;2022-11-20T04:18:11;95925.44;;;5.53;100.00
34328;BME280;20588;48.840;10.064;2022-11-20T04:20:37;95930.31;;;5.48;100.00
34328;BME280;20588;48.840;10.064;2022-11-20T04:23:03;95928.94;;;5.46;100.00
34328;BME280;20588;48.840;10.064;2022-11-20T04:25:29;95922.47;;;5.43;100.00
34328;BME280;20588;48.840;10.064;2022-11-20T04:27:56;95919.94;;;5.43;100.00
34328;BME280;20588;48.840;10.064;2022-11-20T04:30:22;95927.78;;;5.42;100.00
34328;BME280;20588;48.840;10.064;2022-11-20T04:32:48;95923.81;;;5.39;100.00
34328;BME280;20588;48.840;10.064;2022-11-20T04:35:14;95919.94;;;5.43;100.00
34328;BME280;20588;48.840;10.064;2022-11-20T04:37:40;95919.53;;;5.40;100.00
34328;BME280;20588;48.840;10.064;2022-11-20T04:40:06;95924.00;;;5.38;100.00
34328;BME280;20588;48.840;10.064;2022-11-20T04:42:32;95918.72;;;5.33;100.00
34328;BME280;20588;48.840;10.064;2022-11-20T04:44:58;95918.31;;;5.29;100.00
34328;BME280;20588;48.840;10.064;2022-11-20T04:47:24;95916.16;;;5.26;100.00
34328;BME280;20588;48.840;10.064;2022-11-20T04:49:50;95916.34;;;5.25;100.00
34328;BME280;20588;48.840;10.064;2022-11-20T04:52:17;95920.84;;;5.23;100.00
34328;BME280;20588;48.840;10.064;2022-11-20T04:54:43;95920.66;;;5.24;100.00
34328;BME280;20588;48.840;10.064;2022-11-20T04:57:09;95923.41;;;5.29;100.00
34328;BME280;20588;48.840;10.064;2022-11-20T04:59:35;95924.03;;;5.31;100.00
34328;BME280;20588;48.840;10.064;2022-11-20T05:02:01;95919.50;;;5.33;100.00
34328;BME280;20588;48.840;10.064;2022-11-20T05:04:27;95909.69;;;5.37;100.00
34328;BME280;20588;48.840;10.064;2022-11-20T05:06:53;95912.66;;;5.40;100.00
34328;BME280;20588;48.840;10.064;2022-11-20T05:09:19;95913.44;;;5.41;100.00
34328;BME280;20588;48.840;10.064;2022-11-20T05:11:45;95904.03;;;5.41;100.00
34328;BME280;20588;48.840;10.064;2022-11-20T05:14:11;95908.13;;;5.42;100.00
34328;BME280;20588;48.840;10.064;2022-11-20T05:16:37;95910.09;;;5.47;100.00
34328;BME280;20588;48.840;10.064;2022-11-20T05:19:03;95909.34;;;5.46;100.00
34328;BME280;20588;48.840;10.064;2022-11-20T05:21:31;95905.00;;;5.47;100.00
34328;BME280;20588;48.840;10.064;2022-11-20T05:23:58;95911.50;;;5.49;100.00
34328;BME280;20588;48.840;10.064;2022-11-20T05:26:24;95906.22;;;5.51;100.00
34328;BME280;20588;48.840;10.064;2022-11-20T05:28:50;95916.03;;;5.54;100.00
34328;BME280;20588;48.840;10.064;2022-11-20T05:31:22;95916.97;;;5.53;100.00
34328;BME280;20588;48.840;10.064;2022-11-20T05:33:48;95921.91;;;5.54;100.00
34328;BME280;20588;48.840;10.064;2022-11-20T05:36:15;95914.66;;;5.58;100.00
34328;BME280;20588;48.840;10.064;2022-11-20T05:38:42;95915.44;;;5.58;100.00
34328;BME280;20588;48.840;10.064;2022-11-20T05:41:10;95923.09;;;5.58;100.00
34328;BME280;20588;48.840;10.064;2022-11-20T05:43:37;95914.25;;;5.61;100.00
34328;BME280;20588;48.840;10.064;2022-11-20T05:46:04;95919.78;;;5.65;100.00
34328;BME280;20588;48.840;10.064;2022-11-20T05:48:31;95909.75;;;5.63;100.00
34328;BME280;20588;48.840;10.064;2022-11-20T05:50:59;95921.53;;;5.64;100.00
34328;BME280;20588;48.840;10.064;2022-11-20T05:53:26;95918.97;;;5.64;100.00
34328;BME280;20588;48.840;10.064;2022-11-20T05:56:07;95915.66;;;5.70;100.00
34328;BME280;20588;48.840;10.064;2022-11-20T05:58:34;95923.50;;;5.69;100.00
34328;BME280;20588;48.840;10.064;2022-11-20T06:01:12;95927.03;;;5.68;100.00
34328;BME280;20588;48.840;10.064;2022-11-20T06:03:39;95926.06;;;5.69;100.00
34328;BME280;20588;48.840;10.064;2022-11-20T06:06:06;95931.16;;;5.69;100.00
34328;BME280;20588;48.840;10.064;2022-11-20T06:08:33;95927.63;;;5.70;100.00
34328;BME280;20588;48.840;10.064;2022-11-20T06:11:03;95927.81;;;5.68;100.00
34328;BME280;20588;48.840;10.064;2022-11-20T06:13:30;95927.63;;;5.70;100.00
34328;BME280;20588;48.840;10.064;2022-11-20T06:15:56;95925.25;;;5.68;100.00
34328;BME280;20588;48.840;10.064;2022-11-20T06:18:22;95925.44;;;5.67;100.00
34328;BME280;20588;48.840;10.064;2022-11-20T06:20:48;95930.16;;;5.70;100.00
34328;BME280;20588;48.840;10.064;2022-11-20T06:23:14;95930.56;;;5.73;100.00
34328;BME280;20588;48.840;10.064;2022-11-20T06:25:41;95924.88;;;5.71;100.00
34328;BME280;20588;48.840;10.064;2022-11-20T06:28:08;95927.22;;;5.73;100.00
34328;BME280;20588;48.840;10.064;2022-11-20T06:30:35;95929.97;;;5.71;100.00
34328;BME280;20588;48.840;10.064;2022-11-20T06:33:01;95924.88;;;5.71;100.00
34328;BME280;20588;48.840;10.064;2022-11-20T06:35:27;95931.19;;;5.75;100.00
34328;BME280;20588;48.840;10.064;2022-11-20T06:37:53;95929.78;;;5.79;100.00
34328;BME280;20588;48.840;10.064;2022-11-20T06:40:21;95932.16;;;5.81;100.00
34328;BME280;20588;48.840;10.064;2022-11-20T06:42:47;95938.84;;;5.82;100.00
34328;BME280;20588;48.840;10.064;2022-11-20T06:45:13;95932.41;;;5.86;100.00
34328;BME280;20588;48.840;10.064;2022-11-20T06:47:39;95930.03;;;5.84;100.00
34328;BME280;20588;48.840;10.064;2022-11-20T06:50:05;95934.34;;;5.84;100.00
34328;BME280;20588;48.840;10.064;2022-11-20T06:52:32;95930.03;;;5.84;100.00
34328;BME280;20588;48.840;10.064;2022-11-20T06:54:58;95935.91;;;5.85;100.00
34328;BME280;20588;48.840;10.064;2022-11-20T06:57:25;95923.16;;;5.85;100.00
34328;BME280;20588;48.840;10.064;2022-11-20T06:59:51;95932.59;;;5.84;100.00
34328;BME280;20588;48.840;10.064;2022-11-20T07:02:17;95938.66;;;5.83;100.00
34328;BME280;20588;48.840;10.064;2022-11-20T07:04:43;95941.00;;;5.85;100.00
34328;BME280;20588;48.840;10.064;2022-11-20T07:07:09;95939.06;;;5.87;100.00
34328;BME280;20588;48.840;10.064;2022-11-20T07:09:35;95938.09;;;5.88;100.00
34328;BME280;20588;48.840;10.064;2022-11-20T07:12:01;95935.16;;;5.91;100.00
34328;BME280;20588;48.840;10.064;2022-11-20T07:14:27;95938.47;;;5.91;100.00
34328;BME280;20588;48.840;10.064;2022-11-20T07:16:54;95939.47;;;5.90;100.00
34328;BME280;20588;48.840;10.064;2022-11-20T07:19:20;95939.69;;;5.95;100.00
34328;BME280;20588;48.840;10.064;2022-11-20T07:21:46;95947.16;;;5.97;100.00
34328;BME280;20588;48.840;10.064;2022-11-20T07:24:13;95948.72;;;5.98;100.00
34328;BME280;20588;48.840;10.064;2022-11-20T07:26:39;95947.31;;;6.02;100.00
34328;BME280;20588;48.840;10.064;2022-11-20T07:29:05;95947.72;;;6.05;100.00
34328;BME280;20588;48.840;10.064;2022-11-20T07:31:31;95949.88;;;6.08;100.00
34328;BME280;20588;48.840;10.064;2022-11-20T07:33:57;95954.22;;;6.14;100.00
34328;BME280;20588;48.840;10.064;2022-11-20T07:36:23;95958.94;;;6.24;100.00
34328;BME280;20588;48.840;10.064;2022-11-20T07:38:49;95955.38;;;6.25;100.00
34328;BME280;20588;48.840;10.064;2022-11-20T07:41:15;95955.78;;;6.28;100.00
34328;BME280;20588;48.840;10.064;2022-11-20T07:43:41;95948.91;;;6.29;100.00
34328;BME280;20588;48.840;10.064;2022-11-20T07:46:07;95948.31;;;6.33;100.00
34328;BME280;20588;48.840;10.064;2022-11-20T07:48:33;95954.00;;;6.29;100.00
34328;BME280;20588;48.840;10.064;2022-11-20T07:50:59;95955.59;;;6.30;100.00
34328;BME280;20588;48.840;10.064;2022-11-20T07:53:25;95953.81;;;6.30;100.00
34328;BME280;20588;48.840;10.064;2022-11-20T07:55:51;95960.88;;;6.35;100.00
34328;BME280;20588;48.840;10.064;2022-11-20T07:58:18;95961.47;;;6.43;100.00
34328;BME280;20588;48.840;10.064;2022-11-20T08:00:45;95959.28;;;6.47;100.00
34328;BME280;20588;48.840;10.064;2022-11-20T08:03:12;95961.09;;;6.46;100.00
34328;BME280;20588;48.840;10.064;2022-11-20T08:05:38;95957.75;;;6.46;100.00
34328;BME280;20588;48.840;10.064;2022-11-20T08:08:04;95959.28;;;6.47;100.00
34328;BME280;20588;48.840;10.064;2022-11-20T08:10:30;95962.84;;;6.46;100.00
34328;BME280;20588;48.840;10.064;2022-11-20T08:12:56;95957.94;;;6.51;100.00
34328;BME280;20588;48.840;10.064;2022-11-20T08:15:41;95970.31;;;6.54;100.00
34328;BME280;20588;48.840;10.064;2022-11-20T08:18:11;95957.91;;;6.64;100.00
34328;BME280;20588;48.840;10.064;2022-11-20T08:20:38;95962.63;;;6.73;100.00
34328;BME280;20588;48.840;10.064;2022-11-20T08:23:06;95958.84;;;6.89;100.00
34328;BME280;20588;48.840;10.064;2022-11-20T08:25:34;95968.66;;;6.98;100.00
34328;BME280;20588;48.840;10.064;2022-11-20T08:28:07;95960.16;;;7.04;100.00
34328;BME280;20588;48.840;10.064;2022-11-20T08:30:34;95957.00;;;7.09;100.00
34328;BME280;20588;48.840;10.064;2022-11-20T08:33:08;95960.75;;;7.06;100.00
34328;BME280;20588;48.840;10.064;2022-11-20T08:35:35;95968.03;;;7.09;100.00
34328;BME280;20588;48.840;10.064;2022-11-20T08:38:03;95964.66;;;7.15;100.00
34328;BME280;20588;48.840;10.064;2022-11-20T08:40:30;95962.50;;;7.19;100.00
34328;BME280;20588;48.840;10.064;2022-11-20T08:42:56;95964.63;;;7.28;100.00
34328;BME280;20588;48.840;10.064;2022-11-20T08:45:22;95966.94;;;7.36;100.00
34328;BME280;20588;48.840;10.064;2022-11-20T08:47:49;95970.69;;;7.41;100.00
34328;BME280;20588;48.840;10.064;2022-11-20T08:50:16;95963.34;;;7.51;100.00
34328;BME280;20588;48.840;10.064;2022-11-20T08:52:42;95968.06;;;7.54;100.00
34328;BME280;20588;48.840;10.064;2022-11-20T08:55:09;95967.69;;;7.50;100.00
34328;BME280;20588;48.840;10.064;2022-11-20T08:57:36;95969.06;;;7.53;100.00
34328;BME280;20588;48.840;10.064;2022-11-20T09:00:05;95977.78;;;7.38;100.00
34328;BME280;20588;48.840;10.064;2022-11-20T09:02:31;95987.06;;;7.26;100.00
34328;BME280;20588;48.840;10.064;2022-11-20T09:04:58;95979.59;;;7.25;100.00
34328;BME280;20588;48.840;10.064;2022-11-20T09:07:24;95981.56;;;7.23;100.00
34328;BME280;20588;48.840;10.064;2022-11-20T09:09:50;95982.56;;;7.15;100.00
34328;BME280;20588;48.840;10.064;2022-11-20T09:12:16;95972.94;;;7.11;100.00
34328;BME280;20588;48.840;10.064;2022-11-20T09:14:42;95968.25;;;7.08;100.00
34328;BME280;20588;48.840;10.064;2022-11-20T09:17:10;95977.88;;;7.06;100.00
34328;BME280;20588;48.840;10.064;2022-11-20T09:19:39;95974.94;;;7.02;100.00
34328;BME280;20588;48.840;10.064;2022-11-20T09:22:06;95974.56;;;6.99;100.00
34328;BME280;20588;48.840;10.064;2022-11-20T09:24:32;95972.59;;;7.01;100.00
34328;BME280;20588;48.840;10.064;2022-11-20T09:27:00;95968.25;;;7.01;100.00
34328;BME280;20588;48.840;10.064;2022-11-20T09:29:26;95978.47;;;7.08;100.00
34328;BME280;20588;48.840;10.064;2022-11-20T09:31:52;95973.09;;;7.29;100.00
34328;BME280;20588;48.840;10.064;2022-11-20T09:34:18;95976.78;;;7.39;100.00
34328;BME280;20588;48.840;10.064;2022-11-20T09:36:44;95968.88;;;7.48;100.00
34328;BME280;20588;48.840;10.064;2022-11-20T09:39:10;95970.81;;;7.59;100.00
34328;BME280;20588;48.840;10.064;2022-11-20T09:41:58;95972.38;;;7.60;100.00
34328;BME280;20588;48.840;10.064;2022-11-20T09:44:49;95975.50;;;7.62;100.00
34328;BME280;20588;48.840;10.064;2022-11-20T09:47:23;95974.75;;;7.55;100.00
34328;BME280;20588;48.840;10.064;2022-11-20T09:55:36;95986.19;;;7.90;100.00
34328;BME280;20588;48.840;10.064;2022-11-20T09:58:06;95989.94;;;7.87;100.00
34328;BME280;20588;48.840;10.064;2022-11-20T10:00:35;95982.13;;;7.76;100.00
34328;BME280;20588;48.840;10.064;2022-11-20T10:03:13;95980.38;;;7.70;100.00
34328;BME280;20588;48.840;10.064;2022-11-20T10:05:45;95986.13;;;7.65;100.00
34328;BME280;20588;48.840;10.064;2022-11-20T10:08:32;95992.84;;;7.60;100.00
34328;BME280;20588;48.840;10.064;2022-11-20T10:11:24;95978.94;;;7.43;100.00
34328;BME280;20588;48.840;10.064;2022-11-20T10:16:59;95994.69;;;7.46;100.00
34328;BME280;20588;48.840;10.064;2022-11-20T10:22:39;95984.69;;;7.31;100.00
34328;BME280;20588;48.840;10.064;2022-11-20T10:25:20;95985.09;;;7.28;100.00
34328;BME280;20588;48.840;10.064;2022-11-20T10:30:26;95976.84;;;7.20;100.00
34328;BME280;20588;48.840;10.064;2022-11-20T10:32:55;95977.66;;;7.14;100.00
34328;BME280;20588;48.840;10.064;2022-11-20T10:38:00;95979.25;;;7.08;100.00
34328;BME280;20588;48.840;10.064;2022-11-20T10:40:45;95988.72;;;7.01;100.00
34328;BME280;20588;48.840;10.064;2022-11-20T10:43:32;95986.34;;;7.00;100.00
34328;BME280;20588;48.840;10.064;2022-11-20T10:48:31;95990.69;;;6.99;100.00
34328;BME280;20588;48.840;10.064;2022-11-20T10:54:12;95985.94;;;7.09;100.00
34328;BME280;20588;48.840;10.064;2022-11-20T10:56:47;95989.28;;;7.10;100.00
34328;BME280;20588;48.840;10.064;2022-11-20T11:02:13;95981.22;;;7.13;100.00
34328;BME280;20588;48.840;10.064;2022-11-20T11:04:44;95973.53;;;7.13;100.00
34328;BME280;20588;48.840;10.064;2022-11-20T11:07:21;95982.59;;;7.09;100.00
34328;BME280;20588;48.840;10.064;2022-11-20T11:09:52;95978.41;;;7.21;100.00
34328;BME280;20588;48.840;10.064;2022-11-20T11:12:19;95971.75;;;7.20;100.00
34328;BME280;20588;48.840;10.064;2022-11-20T11:14:51;95971.75;;;7.20;100.00
34328;BME280;20588;48.840;10.064;2022-11-20T11:20:25;95969.13;;;7.33;100.00
34328;BME280;20588;48.840;10.064;2022-11-20T11:22:56;95963.38;;;7.44;100.00
34328;BME280;20588;48.840;10.064;2022-11-20T11:25:40;95964.28;;;7.56;100.00
34328;BME280;20588;48.840;10.064;2022-11-20T11:28:21;95960.16;;;7.62;100.00
34328;BME280;20588;48.840;10.064;2022-11-20T11:30:50;95965.88;;;7.57;100.00
34328;BME280;20588;48.840;10.064;2022-11-20T11:33:42;95967.13;;;7.48;100.00
34328;BME280;20588;48.840;10.064;2022-11-20T11:36:21;95979.34;;;7.39;100.00
34328;BME280;20588;48.840;10.064;2022-11-20T11:38:51;95969.72;;;7.28;100.00
34328;BME280;20588;48.840;10.064;2022-11-20T11:41:24;95970.53;;;7.22;100.00
34328;BME280;20588;48.840;10.064;2022-11-20T11:43:56;95964.25;;;7.18;100.00
34328;BME280;20588;48.840;10.064;2022-11-20T11:46:54;95972.53;;;7.14;100.00
34328;BME280;20588;48.840;10.064;2022-11-20T11:49:22;95962.50;;;7.12;100.00
34328;BME280;20588;48.840;10.064;2022-11-20T11:54:45;95959.97;;;7.06;100.00
34328;BME280;20588;48.840;10.064;2022-11-20T11:57:41;95955.47;;;7.01;100.00
34328;BME280;20588;48.840;10.064;2022-11-20T12:00:12;95950.94;;;6.97;100.00
34328;BME280;20588;48.840;10.064;2022-11-20T12:10:39;95953.16;;;6.93;100.00
34328;BME280;20588;48.840;10.064;2022-11-20T12:15:53;95947.84;;;6.82;100.00
34328;BME280;20588;48.840;10.064;2022-11-20T12:18:21;95943.91;;;6.86;100.00
34328;BME280;20588;48.840;10.064;2022-11-20T12:26:17;95935.19;;;7.00;100.00
34328;BME280;20588;48.840;10.064;2022-11-20T12:28:56;95944.25;;;7.02;100.00
34328;BME280;20588;48.840;10.064;2022-11-20T12:31:31;95936.41;;;6.97;100.00
34328;BME280;20588;48.840;10.064;2022-11-20T12:34:47;95935.81;;;6.95;100.00
34328;BME280;20588;48.840;10.064;2022-11-20T12:39:49;95936.88;;;7.25;100.00
34328;BME280;20588;48.840;10.064;2022-11-20T12:56:57;95921.19;;;10.53;97.94
34328;BME280;20588;48.840;10.064;2022-11-20T13:07:43;95913.28;;;10.43;92.92
34328;BME280;20588;48.840;10.064;2022-11-20T13:10:43;95912.09;;;10.16;91.39
34328;BME280;20588;48.840;10.064;2022-11-20T13:13:23;95917.09;;;10.00;93.14
34328;BME280;20588;48.840;10.064;2022-11-20T13:15:54;95908.56;;;9.88;92.49
34328;BME280;20588;48.840;10.064;2022-11-20T13:18:22;95914.53;;;9.59;92.44
34328;BME280;20588;48.840;10.064;2022-11-20T13:20:48;95907.72;;;9.35;94.89
34328;BME280;20588;48.840;10.064;2022-11-20T13:23:28;95903.03;;;9.32;96.53
34328;BME280;20588;48.840;10.064;2022-11-20T13:26:25;95901.47;;;9.31;97.94
34328;BME280;20588;48.840;10.064;2022-11-20T13:29:09;95900.72;;;9.42;98.88
34328;BME280;20588;48.840;10.064;2022-11-20T13:31:39;95898.06;;;9.48;98.21
34328;BME280;20588;48.840;10.064;2022-11-20T13:34:09;95895.72;;;9.47;97.66
34328;BME280;20588;48.840;10.064;2022-11-20T13:36:58;95897.22;;;9.36;96.52
34328;BME280;20588;48.840;10.064;2022-11-20T13:39:30;95891.59;;;9.16;96.89
34328;BME280;20588;48.840;10.064;2022-11-20T13:42:27;95894.72;;;9.00;97.87
34328;BME280;20588;48.840;10.064;2022-11-20T13:45:07;95898.25;;;8.87;98.03
34328;BME280;20588;48.840;10.064;2022-11-20T13:47:35;95898.22;;;8.69;98.79
34328;BME280;20588;48.840;10.064;2022-11-20T13:50:03;95891.88;;;8.54;99.60
34328;BME280;20588;48.840;10.064;2022-11-20T13:52:46;95903.03;;;8.41;100.00
34328;BME280;20588;48.840;10.064;2022-11-20T13:55:36;95893.69;;;8.29;100.00
34328;BME280;20588;48.840;10.064;2022-11-20T13:58:31;95892.75;;;8.23;100.00
34328;BME280;20588;48.840;10.064;2022-11-20T14:01:24;95891.22;;;8.16;100.00
34328;BME280;20588;48.840;10.064;2022-11-20T14:03:52;95896.19;;;8.11;100.00
34328;BME280;20588;48.840;10.064;2022-11-20T14:06:31;95896.38;;;8.09;100.00
34328;BME280;20588;48.840;10.064;2022-11-20T14:08:59;95902.00;;;8.24;100.00
34328;BME280;20588;48.840;10.064;2022-11-20T14:11:30;95899.84;;;8.46;100.00
34328;BME280;20588;48.840;10.064;2022-11-20T14:14:00;95888.94;;;8.50;100.00
34328;BME280;20588;48.840;10.064;2022-11-20T14:16:30;95886.75;;;8.54;100.00
34328;BME280;20588;48.840;10.064;2022-11-20T14:19:08;95886.97;;;8.52;100.00
34328;BME280;20588;48.840;10.064;2022-11-20T14:21:43;95890.00;;;8.43;100.00
34328;BME280;20588;48.840;10.064;2022-11-20T14:24:11;95892.06;;;8.34;100.00
34328;BME280;20588;48.840;10.064;2022-11-20T14:26:47;95885.25;;;8.22;100.00
34328;BME280;20588;48.840;10.064;2022-11-20T14:29:17;95886.72;;;8.11;100.00